F70

French Valley Airport

Murrieta/Temecula, California, USA
METAR KF70 182155Z AUTO 21007KT 10SM CLR 29/17 A2999 RMK AO1
Observed Flight Rules
Jul-18 @ 21:55 UTC (30 minutes ago) Visual Flight Rules
Wind Visibility Clouds
210° at 7 knots 10 miles
  • Clear skies
Temperatures Readings
Current 29°C / 84°F
Dewpoint 17°C / 63°F
Humidity 48%
Altimeter 29.99" Hg
Pressure 1016 hPa
Elevation 412
METAR KF70 182155Z AUTO 21007KT 10SM CLR 29/17 A2999 RMK AO1
Observed Flight Rules
Jul-18 @ 21:55 UTC
(30 minutes ago)
VFR
Wind Visibility
210° at 7 knots 10 miles
Clouds
  • Clear skies
Temperature Dewpoint
29°C / 84°F 17°C / 63°F
Humidity Altimeter Pressure
48% 29.99" Hg 1016 hPa